sensor_id;sensor_type;location;lat;lon;timestamp;P1;durP1;ratioP1;P2;durP2;ratioP2
22780;SDS011;11557;50.884;4.322;2023-01-31T00:00:09;31.40;;;9.75;;
22780;SDS011;11557;50.884;4.322;2023-01-31T00:02:35;29.67;;;9.93;;
22780;SDS011;11557;50.884;4.322;2023-01-31T00:05:00;39.85;;;11.82;;
22780;SDS011;11557;50.884;4.322;2023-01-31T00:07:26;37.97;;;10.93;;
22780;SDS011;11557;50.884;4.322;2023-01-31T00:09:52;32.35;;;10.35;;
22780;SDS011;11557;50.884;4.322;2023-01-31T00:12:17;34.33;;;10.30;;
22780;SDS011;11557;50.884;4.322;2023-01-31T00:14:43;31.77;;;10.35;;
22780;SDS011;11557;50.884;4.322;2023-01-31T00:17:08;29.38;;;10.25;;
22780;SDS011;11557;50.884;4.322;2023-01-31T00:19:34;35.95;;;10.82;;
22780;SDS011;11557;50.884;4.322;2023-01-31T00:22:00;30.98;;;10.00;;
22780;SDS011;11557;50.884;4.322;2023-01-31T00:24:25;29.52;;;10.55;;
22780;SDS011;11557;50.884;4.322;2023-01-31T00:26:51;31.40;;;10.55;;
22780;SDS011;11557;50.884;4.322;2023-01-31T00:29:23;33.90;;;10.43;;
22780;SDS011;11557;50.884;4.322;2023-01-31T00:31:49;36.85;;;11.63;;
22780;SDS011;11557;50.884;4.322;2023-01-31T00:34:15;27.13;;;10.30;;
22780;SDS011;11557;50.884;4.322;2023-01-31T00:36:41;35.33;;;11.05;;
22780;SDS011;11557;50.884;4.322;2023-01-31T00:39:07;31.00;;;10.20;;
22780;SDS011;11557;50.884;4.322;2023-01-31T00:41:33;30.52;;;10.25;;
22780;SDS011;11557;50.884;4.322;2023-01-31T00:44:00;35.75;;;10.35;;
22780;SDS011;11557;50.884;4.322;2023-01-31T00:46:26;29.38;;;10.15;;
22780;SDS011;11557;50.884;4.322;2023-01-31T00:48:52;39.80;;;10.60;;
22780;SDS011;11557;50.884;4.322;2023-01-31T00:51:18;34.20;;;10.57;;
22780;SDS011;11557;50.884;4.322;2023-01-31T00:53:44;34.13;;;10.43;;
22780;SDS011;11557;50.884;4.322;2023-01-31T00:56:14;31.45;;;10.32;;
22780;SDS011;11557;50.884;4.322;2023-01-31T00:58:46;40.25;;;11.25;;
22780;SDS011;11557;50.884;4.322;2023-01-31T01:01:14;38.58;;;10.98;;
22780;SDS011;11557;50.884;4.322;2023-01-31T01:03:45;31.05;;;10.25;;
22780;SDS011;11557;50.884;4.322;2023-01-31T01:06:11;41.25;;;10.70;;
22780;SDS011;11557;50.884;4.322;2023-01-31T01:08:38;38.45;;;11.32;;
22780;SDS011;11557;50.884;4.322;2023-01-31T01:11:06;32.33;;;10.50;;
22780;SDS011;11557;50.884;4.322;2023-01-31T01:13:33;34.75;;;11.18;;
22780;SDS011;11557;50.884;4.322;2023-01-31T01:16:05;32.08;;;10.70;;
22780;SDS011;11557;50.884;4.322;2023-01-31T01:18:37;28.20;;;10.00;;
22780;SDS011;11557;50.884;4.322;2023-01-31T01:21:10;34.30;;;10.52;;
22780;SDS011;11557;50.884;4.322;2023-01-31T01:23:37;37.30;;;10.93;;
22780;SDS011;11557;50.884;4.322;2023-01-31T01:26:05;25.80;;;10.55;;
22780;SDS011;11557;50.884;4.322;2023-01-31T01:28:36;31.17;;;10.13;;
22780;SDS011;11557;50.884;4.322;2023-01-31T01:31:05;30.55;;;10.10;;
22780;SDS011;11557;50.884;4.322;2023-01-31T01:33:33;30.25;;;10.30;;
22780;SDS011;11557;50.884;4.322;2023-01-31T01:36:00;33.42;;;10.52;;
22780;SDS011;11557;50.884;4.322;2023-01-31T01:38:32;37.08;;;10.43;;
22780;SDS011;11557;50.884;4.322;2023-01-31T01:41:02;35.80;;;10.07;;
22780;SDS011;11557;50.884;4.322;2023-01-31T01:43:41;32.35;;;11.13;;
22780;SDS011;11557;50.884;4.322;2023-01-31T01:46:24;23.58;;;9.80;;
22780;SDS011;11557;50.884;4.322;2023-01-31T01:48:53;33.58;;;9.32;;
22780;SDS011;11557;50.884;4.322;2023-01-31T01:51:24;38.63;;;10.50;;
22780;SDS011;11557;50.884;4.322;2023-01-31T01:53:51;27.75;;;9.98;;
22780;SDS011;11557;50.884;4.322;2023-01-31T01:56:24;32.65;;;10.20;;
22780;SDS011;11557;50.884;4.322;2023-01-31T02:01:28;28.90;;;10.05;;
22780;SDS011;11557;50.884;4.322;2023-01-31T02:03:57;29.48;;;9.65;;
22780;SDS011;11557;50.884;4.322;2023-01-31T02:06:23;28.77;;;9.80;;
22780;SDS011;11557;50.884;4.322;2023-01-31T02:08:49;28.95;;;9.45;;
22780;SDS011;11557;50.884;4.322;2023-01-31T02:11:17;30.48;;;9.55;;
22780;SDS011;11557;50.884;4.322;2023-01-31T02:13:51;33.05;;;9.77;;
22780;SDS011;11557;50.884;4.322;2023-01-31T02:16:21;26.48;;;10.02;;
22780;SDS011;11557;50.884;4.322;2023-01-31T02:18:47;39.38;;;10.65;;
22780;SDS011;11557;50.884;4.322;2023-01-31T02:35:23;28.88;;;9.70;;
22780;SDS011;11557;50.884;4.322;2023-01-31T02:38:06;25.85;;;9.77;;
22780;SDS011;11557;50.884;4.322;2023-01-31T02:40:36;27.70;;;10.73;;
22780;SDS011;11557;50.884;4.322;2023-01-31T02:46:43;34.83;;;11.10;;
22780;SDS011;11557;50.884;4.322;2023-01-31T02:49:14;32.97;;;10.88;;
22780;SDS011;11557;50.884;4.322;2023-01-31T02:52:05;36.88;;;11.60;;
22780;SDS011;11557;50.884;4.322;2023-01-31T02:54:42;33.28;;;11.75;;
22780;SDS011;11557;50.884;4.322;2023-01-31T02:57:37;34.22;;;12.23;;
22780;SDS011;11557;50.884;4.322;2023-01-31T03:00:05;34.15;;;10.90;;
22780;SDS011;11557;50.884;4.322;2023-01-31T03:02:32;31.00;;;12.05;;
22780;SDS011;11557;50.884;4.322;2023-01-31T03:04:57;33.63;;;11.48;;
22780;SDS011;11557;50.884;4.322;2023-01-31T03:07:24;37.95;;;11.93;;
22780;SDS011;11557;50.884;4.322;2023-01-31T03:10:12;31.30;;;11.90;;
22780;SDS011;11557;50.884;4.322;2023-01-31T03:17:50;29.48;;;11.43;;
22780;SDS011;11557;50.884;4.322;2023-01-31T03:20:31;25.77;;;11.50;;
22780;SDS011;11557;50.884;4.322;2023-01-31T03:23:15;28.27;;;11.05;;
22780;SDS011;11557;50.884;4.322;2023-01-31T03:25:43;35.13;;;11.55;;
22780;SDS011;11557;50.884;4.322;2023-01-31T03:28:12;25.60;;;12.02;;
22780;SDS011;11557;50.884;4.322;2023-01-31T03:30:45;39.10;;;11.65;;
22780;SDS011;11557;50.884;4.322;2023-01-31T03:33:25;31.13;;;11.82;;
22780;SDS011;11557;50.884;4.322;2023-01-31T03:35:56;35.78;;;11.85;;
22780;SDS011;11557;50.884;4.322;2023-01-31T03:38:33;33.07;;;10.70;;
22780;SDS011;11557;50.884;4.322;2023-01-31T03:43:39;35.17;;;12.82;;
22780;SDS011;11557;50.884;4.322;2023-01-31T03:46:19;28.08;;;11.25;;
22780;SDS011;11557;50.884;4.322;2023-01-31T03:48:50;29.90;;;11.57;;
22780;SDS011;11557;50.884;4.322;2023-01-31T03:51:20;31.45;;;11.75;;
22780;SDS011;11557;50.884;4.322;2023-01-31T03:53:53;31.50;;;11.15;;
22780;SDS011;11557;50.884;4.322;2023-01-31T03:59:28;34.28;;;12.25;;
22780;SDS011;11557;50.884;4.322;2023-01-31T04:01:59;26.27;;;11.10;;
22780;SDS011;11557;50.884;4.322;2023-01-31T04:04:33;29.80;;;11.75;;
22780;SDS011;11557;50.884;4.322;2023-01-31T04:07:04;32.28;;;11.15;;
22780;SDS011;11557;50.884;4.322;2023-01-31T04:09:30;32.10;;;11.80;;
22780;SDS011;11557;50.884;4.322;2023-01-31T04:12:00;26.67;;;10.95;;
22780;SDS011;11557;50.884;4.322;2023-01-31T04:14:27;37.22;;;11.50;;
22780;SDS011;11557;50.884;4.322;2023-01-31T04:16:53;35.28;;;10.93;;
22780;SDS011;11557;50.884;4.322;2023-01-31T04:19:19;32.15;;;10.80;;
22780;SDS011;11557;50.884;4.322;2023-01-31T04:21:44;26.60;;;11.40;;
22780;SDS011;11557;50.884;4.322;2023-01-31T04:24:10;28.67;;;11.13;;
22780;SDS011;11557;50.884;4.322;2023-01-31T04:26:36;24.98;;;10.65;;
22780;SDS011;11557;50.884;4.322;2023-01-31T04:29:02;29.13;;;10.65;;
22780;SDS011;11557;50.884;4.322;2023-01-31T04:31:28;33.85;;;10.48;;
22780;SDS011;11557;50.884;4.322;2023-01-31T04:33:54;25.52;;;10.75;;
22780;SDS011;11557;50.884;4.322;2023-01-31T04:36:21;29.55;;;10.77;;
22780;SDS011;11557;50.884;4.322;2023-01-31T04:38:48;34.00;;;11.20;;
22780;SDS011;11557;50.884;4.322;2023-01-31T04:41:14;33.03;;;11.50;;
22780;SDS011;11557;50.884;4.322;2023-01-31T04:43:39;34.47;;;11.48;;
22780;SDS011;11557;50.884;4.322;2023-01-31T04:46:05;27.27;;;11.07;;
22780;SDS011;11557;50.884;4.322;2023-01-31T04:48:31;32.85;;;10.65;;
22780;SDS011;11557;50.884;4.322;2023-01-31T04:50:57;27.33;;;10.80;;
22780;SDS011;11557;50.884;4.322;2023-01-31T04:53:23;27.95;;;10.77;;
22780;SDS011;11557;50.884;4.322;2023-01-31T04:55:48;30.00;;;11.10;;
22780;SDS011;11557;50.884;4.322;2023-01-31T04:58:17;31.15;;;10.80;;
22780;SDS011;11557;50.884;4.322;2023-01-31T05:00:43;27.58;;;11.00;;
22780;SDS011;11557;50.884;4.322;2023-01-31T05:03:09;33.38;;;10.95;;
22780;SDS011;11557;50.884;4.322;2023-01-31T05:05:35;30.75;;;9.95;;
22780;SDS011;11557;50.884;4.322;2023-01-31T05:08:00;36.08;;;10.82;;
22780;SDS011;11557;50.884;4.322;2023-01-31T05:10:26;27.52;;;10.57;;
22780;SDS011;11557;50.884;4.322;2023-01-31T05:12:51;29.83;;;10.57;;
22780;SDS011;11557;50.884;4.322;2023-01-31T05:15:17;28.02;;;10.15;;
22780;SDS011;11557;50.884;4.322;2023-01-31T05:17:42;29.05;;;10.43;;
22780;SDS011;11557;50.884;4.322;2023-01-31T05:20:09;26.02;;;10.30;;
22780;SDS011;11557;50.884;4.322;2023-01-31T05:22:35;26.85;;;9.95;;
22780;SDS011;11557;50.884;4.322;2023-01-31T05:25:00;32.42;;;10.25;;
22780;SDS011;11557;50.884;4.322;2023-01-31T05:27:26;29.98;;;9.50;;
22780;SDS011;11557;50.884;4.322;2023-01-31T05:29:52;28.50;;;9.38;;
22780;SDS011;11557;50.884;4.322;2023-01-31T05:32:17;32.22;;;9.82;;
22780;SDS011;11557;50.884;4.322;2023-01-31T05:34:43;27.73;;;9.02;;
22780;SDS011;11557;50.884;4.322;2023-01-31T05:37:09;28.85;;;11.18;;
22780;SDS011;11557;50.884;4.322;2023-01-31T05:39:35;31.90;;;8.52;;
22780;SDS011;11557;50.884;4.322;2023-01-31T05:42:01;31.20;;;9.23;;
22780;SDS011;11557;50.884;4.322;2023-01-31T05:44:26;27.15;;;8.93;;
22780;SDS011;11557;50.884;4.322;2023-01-31T05:46:52;28.00;;;9.93;;
22780;SDS011;11557;50.884;4.322;2023-01-31T05:49:18;27.40;;;8.60;;
22780;SDS011;11557;50.884;4.322;2023-01-31T05:51:44;26.58;;;9.32;;
22780;SDS011;11557;50.884;4.322;2023-01-31T05:54:10;30.70;;;9.30;;
22780;SDS011;11557;50.884;4.322;2023-01-31T05:56:36;29.80;;;9.13;;
22780;SDS011;11557;50.884;4.322;2023-01-31T05:59:03;28.40;;;9.38;;
22780;SDS011;11557;50.884;4.322;2023-01-31T06:01:28;26.67;;;9.25;;
22780;SDS011;11557;50.884;4.322;2023-01-31T06:03:54;21.52;;;8.20;;
22780;SDS011;11557;50.884;4.322;2023-01-31T06:06:20;36.47;;;8.43;;
22780;SDS011;11557;50.884;4.322;2023-01-31T06:08:46;30.55;;;8.88;;
22780;SDS011;11557;50.884;4.322;2023-01-31T06:11:12;22.65;;;8.57;;
22780;SDS011;11557;50.884;4.322;2023-01-31T06:13:38;27.83;;;8.25;;
22780;SDS011;11557;50.884;4.322;2023-01-31T06:16:07;25.50;;;8.25;;
22780;SDS011;11557;50.884;4.322;2023-01-31T06:18:33;19.10;;;8.48;;
22780;SDS011;11557;50.884;4.322;2023-01-31T06:20:58;22.90;;;7.80;;
22780;SDS011;11557;50.884;4.322;2023-01-31T06:23:24;25.80;;;8.18;;
22780;SDS011;11557;50.884;4.322;2023-01-31T06:25:50;22.50;;;6.90;;
22780;SDS011;11557;50.884;4.322;2023-01-31T06:28:16;30.45;;;8.38;;
22780;SDS011;11557;50.884;4.322;2023-01-31T06:30:42;29.30;;;8.48;;
22780;SDS011;11557;50.884;4.322;2023-01-31T06:33:08;25.63;;;8.02;;
22780;SDS011;11557;50.884;4.322;2023-01-31T06:35:34;24.25;;;8.32;;
22780;SDS011;11557;50.884;4.322;2023-01-31T06:38:01;28.98;;;8.75;;
22780;SDS011;11557;50.884;4.322;2023-01-31T06:40:27;32.17;;;9.40;;
22780;SDS011;11557;50.884;4.322;2023-01-31T06:42:52;37.33;;;8.93;;
22780;SDS011;11557;50.884;4.322;2023-01-31T06:45:18;28.55;;;7.65;;
22780;SDS011;11557;50.884;4.322;2023-01-31T06:47:44;29.73;;;8.07;;
22780;SDS011;11557;50.884;4.322;2023-01-31T06:50:10;24.65;;;8.10;;
22780;SDS011;11557;50.884;4.322;2023-01-31T06:52:37;25.60;;;7.63;;
22780;SDS011;11557;50.884;4.322;2023-01-31T06:55:06;27.50;;;7.80;;
22780;SDS011;11557;50.884;4.322;2023-01-31T06:57:32;25.25;;;7.97;;
22780;SDS011;11557;50.884;4.322;2023-01-31T06:59:58;26.10;;;6.93;;
22780;SDS011;11557;50.884;4.322;2023-01-31T07:02:24;34.95;;;8.48;;
22780;SDS011;11557;50.884;4.322;2023-01-31T07:04:50;29.98;;;8.43;;
22780;SDS011;11557;50.884;4.322;2023-01-31T07:07:16;24.10;;;7.25;;
22780;SDS011;11557;50.884;4.322;2023-01-31T07:09:42;25.90;;;7.15;;
22780;SDS011;11557;50.884;4.322;2023-01-31T07:12:08;24.35;;;7.95;;
22780;SDS011;11557;50.884;4.322;2023-01-31T07:14:34;30.40;;;8.77;;
22780;SDS011;11557;50.884;4.322;2023-01-31T07:16:59;27.85;;;7.53;;
22780;SDS011;11557;50.884;4.322;2023-01-31T07:19:25;30.73;;;7.90;;
22780;SDS011;11557;50.884;4.322;2023-01-31T07:21:50;29.27;;;7.60;;
22780;SDS011;11557;50.884;4.322;2023-01-31T07:24:16;26.88;;;8.07;;
22780;SDS011;11557;50.884;4.322;2023-01-31T07:26:42;25.40;;;7.28;;
22780;SDS011;11557;50.884;4.322;2023-01-31T07:29:08;28.50;;;7.78;;
22780;SDS011;11557;50.884;4.322;2023-01-31T07:31:34;31.38;;;8.60;;
22780;SDS011;11557;50.884;4.322;2023-01-31T07:33:59;34.25;;;7.57;;
22780;SDS011;11557;50.884;4.322;2023-01-31T07:36:25;27.20;;;7.80;;
22780;SDS011;11557;50.884;4.322;2023-01-31T07:38:54;35.60;;;8.05;;
22780;SDS011;11557;50.884;4.322;2023-01-31T07:41:22;28.67;;;8.20;;
22780;SDS011;11557;50.884;4.322;2023-01-31T07:43:48;26.92;;;8.65;;
22780;SDS011;11557;50.884;4.322;2023-01-31T07:46:14;23.30;;;6.93;;
22780;SDS011;11557;50.884;4.322;2023-01-31T07:48:40;27.35;;;8.63;;
22780;SDS011;11557;50.884;4.322;2023-01-31T07:51:06;30.75;;;7.88;;
22780;SDS011;11557;50.884;4.322;2023-01-31T07:53:33;27.40;;;7.97;;
22780;SDS011;11557;50.884;4.322;2023-01-31T07:56:13;24.23;;;8.00;;
22780;SDS011;11557;50.884;4.322;2023-01-31T07:58:41;22.65;;;7.70;;
22780;SDS011;11557;50.884;4.322;2023-01-31T08:01:12;26.40;;;7.80;;
22780;SDS011;11557;50.884;4.322;2023-01-31T08:04:09;22.38;;;7.93;;
22780;SDS011;11557;50.884;4.322;2023-01-31T08:06:37;25.63;;;7.47;;
22780;SDS011;11557;50.884;4.322;2023-01-31T08:09:04;24.85;;;7.32;;
22780;SDS011;11557;50.884;4.322;2023-01-31T08:11:29;29.77;;;7.97;;
22780;SDS011;11557;50.884;4.322;2023-01-31T08:13:55;24.20;;;7.90;;
22780;SDS011;11557;50.884;4.322;2023-01-31T08:16:21;30.42;;;7.78;;
22780;SDS011;11557;50.884;4.322;2023-01-31T08:18:47;22.67;;;7.57;;
22780;SDS011;11557;50.884;4.322;2023-01-31T08:21:13;25.85;;;8.45;;
22780;SDS011;11557;50.884;4.322;2023-01-31T08:23:40;26.55;;;8.20;;
22780;SDS011;11557;50.884;4.322;2023-01-31T08:26:07;22.92;;;6.63;;
22780;SDS011;11557;50.884;4.322;2023-01-31T08:28:41;22.13;;;8.18;;
22780;SDS011;11557;50.884;4.322;2023-01-31T08:31:18;27.95;;;7.45;;
22780;SDS011;11557;50.884;4.322;2023-01-31T08:33:47;23.13;;;6.82;;
22780;SDS011;11557;50.884;4.322;2023-01-31T08:36:24;26.92;;;7.75;;
22780;SDS011;11557;50.884;4.322;2023-01-31T08:38:51;20.98;;;6.88;;
22780;SDS011;11557;50.884;4.322;2023-01-31T08:41:18;23.58;;;6.88;;
22780;SDS011;11557;50.884;4.322;2023-01-31T08:43:45;28.77;;;7.38;;
22780;SDS011;11557;50.884;4.322;2023-01-31T08:46:12;20.15;;;6.38;;
22780;SDS011;11557;50.884;4.322;2023-01-31T08:48:38;24.85;;;7.00;;
22780;SDS011;11557;50.884;4.322;2023-01-31T08:51:06;25.27;;;6.05;;
22780;SDS011;11557;50.884;4.322;2023-01-31T08:53:33;21.52;;;6.35;;
22780;SDS011;11557;50.884;4.322;2023-01-31T08:56:03;24.42;;;6.32;;
22780;SDS011;11557;50.884;4.322;2023-01-31T08:58:30;19.75;;;6.85;;
22780;SDS011;11557;50.884;4.322;2023-01-31T09:01:01;21.30;;;5.65;;
22780;SDS011;11557;50.884;4.322;2023-01-31T09:03:28;16.20;;;6.13;;
22780;SDS011;11557;50.884;4.322;2023-01-31T09:05:57;31.08;;;6.95;;
22780;SDS011;11557;50.884;4.322;2023-01-31T09:08:24;24.05;;;6.75;;
22780;SDS011;11557;50.884;4.322;2023-01-31T09:10:50;29.05;;;7.18;;
22780;SDS011;11557;50.884;4.322;2023-01-31T09:13:17;23.17;;;6.75;;
22780;SDS011;11557;50.884;4.322;2023-01-31T09:15:42;22.95;;;5.72;;
22780;SDS011;11557;50.884;4.322;2023-01-31T09:18:08;19.70;;;6.82;;
22780;SDS011;11557;50.884;4.322;2023-01-31T09:20:34;28.70;;;6.43;;
22780;SDS011;11557;50.884;4.322;2023-01-31T09:22:59;21.50;;;5.57;;
22780;SDS011;11557;50.884;4.322;2023-01-31T09:25:25;23.48;;;5.55;;
22780;SDS011;11557;50.884;4.322;2023-01-31T09:27:53;22.83;;;6.50;;
22780;SDS011;11557;50.884;4.322;2023-01-31T09:30:19;19.70;;;5.97;;
22780;SDS011;11557;50.884;4.322;2023-01-31T09:32:45;25.95;;;6.18;;
22780;SDS011;11557;50.884;4.322;2023-01-31T09:35:11;21.27;;;6.28;;
22780;SDS011;11557;50.884;4.322;2023-01-31T09:37:37;25.02;;;6.78;;
22780;SDS011;11557;50.884;4.322;2023-01-31T09:40:04;24.60;;;7.18;;
22780;SDS011;11557;50.884;4.322;2023-01-31T09:42:32;23.75;;;6.25;;
22780;SDS011;11557;50.884;4.322;2023-01-31T09:45:02;30.70;;;6.97;;
22780;SDS011;11557;50.884;4.322;2023-01-31T09:47:39;21.35;;;7.30;;
22780;SDS011;11557;50.884;4.322;2023-01-31T09:50:39;22.33;;;6.57;;
22780;SDS011;11557;50.884;4.322;2023-01-31T09:53:17;23.08;;;6.72;;
22780;SDS011;11557;50.884;4.322;2023-01-31T09:56:34;21.38;;;5.78;;
22780;SDS011;11557;50.884;4.322;2023-01-31T09:58:42;23.33;;;6.65;;
22780;SDS011;11557;50.884;4.322;2023-01-31T10:09:10;21.30;;;6.40;;
22780;SDS011;11557;50.884;4.322;2023-01-31T10:12:07;27.92;;;6.68;;
22780;SDS011;11557;50.884;4.322;2023-01-31T10:23:37;22.95;;;6.53;;
22780;SDS011;11557;50.884;4.322;2023-01-31T10:25:59;19.60;;;5.80;;
22780;SDS011;11557;50.884;4.322;2023-01-31T10:28:32;14.70;;;5.03;;
22780;SDS011;11557;50.884;4.322;2023-01-31T10:31:09;17.17;;;5.43;;
22780;SDS011;11557;50.884;4.322;2023-01-31T10:36:33;30.88;;;6.78;;
22780;SDS011;11557;50.884;4.322;2023-01-31T10:39:23;21.50;;;6.05;;
22780;SDS011;11557;50.884;4.322;2023-01-31T10:47:30;22.10;;;6.13;;
22780;SDS011;11557;50.884;4.322;2023-01-31T10:50:00;23.20;;;6.90;;
22780;SDS011;11557;50.884;4.322;2023-01-31T10:52:48;18.23;;;5.40;;
22780;SDS011;11557;50.884;4.322;2023-01-31T10:55:32;16.80;;;5.70;;
22780;SDS011;11557;50.884;4.322;2023-01-31T10:58:11;15.52;;;5.60;;
22780;SDS011;11557;50.884;4.322;2023-01-31T11:00:40;18.40;;;6.32;;
22780;SDS011;11557;50.884;4.322;2023-01-31T11:03:09;21.23;;;5.85;;
22780;SDS011;11557;50.884;4.322;2023-01-31T11:05:36;23.77;;;6.28;;
22780;SDS011;11557;50.884;4.322;2023-01-31T11:08:24;19.90;;;6.00;;
22780;SDS011;11557;50.884;4.322;2023-01-31T11:11:06;23.42;;;6.07;;
22780;SDS011;11557;50.884;4.322;2023-01-31T11:13:34;18.98;;;5.90;;
22780;SDS011;11557;50.884;4.322;2023-01-31T11:16:00;21.35;;;6.18;;
22780;SDS011;11557;50.884;4.322;2023-01-31T11:20:57;22.63;;;6.40;;
22780;SDS011;11557;50.884;4.322;2023-01-31T11:23:25;20.60;;;5.72;;
22780;SDS011;11557;50.884;4.322;2023-01-31T11:25:54;30.00;;;6.80;;
22780;SDS011;11557;50.884;4.322;2023-01-31T11:28:26;24.65;;;5.55;;
22780;SDS011;11557;50.884;4.322;2023-01-31T11:31:01;20.77;;;6.13;;
22780;SDS011;11557;50.884;4.322;2023-01-31T11:33:36;21.52;;;6.13;;
22780;SDS011;11557;50.884;4.322;2023-01-31T11:36:41;20.50;;;5.55;;
22780;SDS011;11557;50.884;4.322;2023-01-31T11:42:05;21.75;;;6.05;;
22780;SDS011;11557;50.884;4.322;2023-01-31T11:44:54;22.42;;;5.63;;
22780;SDS011;11557;50.884;4.322;2023-01-31T11:50:20;21.10;;;5.95;;
22780;SDS011;11557;50.884;4.322;2023-01-31T11:52:55;22.13;;;6.30;;
22780;SDS011;11557;50.884;4.322;2023-01-31T11:55:22;20.92;;;6.15;;
22780;SDS011;11557;50.884;4.322;2023-01-31T11:57:56;22.95;;;6.55;;
22780;SDS011;11557;50.884;4.322;2023-01-31T12:00:26;23.60;;;6.28;;
22780;SDS011;11557;50.884;4.322;2023-01-31T12:03:00;21.50;;;6.82;;
22780;SDS011;11557;50.884;4.322;2023-01-31T12:05:41;17.33;;;6.00;;
22780;SDS011;11557;50.884;4.322;2023-01-31T12:10:54;18.98;;;6.50;;
22780;SDS011;11557;50.884;4.322;2023-01-31T12:13:21;20.55;;;7.30;;
22780;SDS011;11557;50.884;4.322;2023-01-31T12:15:57;31.08;;;7.10;;
22780;SDS011;11557;50.884;4.322;2023-01-31T12:29:49;14.07;;;6.53;;
22780;SDS011;11557;50.884;4.322;2023-01-31T12:54:56;27.70;;;7.82;;
22780;SDS011;11557;50.884;4.322;2023-01-31T13:00:23;28.38;;;7.43;;
22780;SDS011;11557;50.884;4.322;2023-01-31T13:03:07;23.25;;;7.47;;
22780;SDS011;11557;50.884;4.322;2023-01-31T13:05:45;24.95;;;7.70;;
22780;SDS011;11557;50.884;4.322;2023-01-31T13:08:28;23.05;;;7.03;;
22780;SDS011;11557;50.884;4.322;2023-01-31T13:11:01;24.92;;;7.93;;
22780;SDS011;11557;50.884;4.322;2023-01-31T13:13:36;33.63;;;9.27;;
22780;SDS011;11557;50.884;4.322;2023-01-31T13:16:12;30.63;;;9.23;;
22780;SDS011;11557;50.884;4.322;2023-01-31T13:18:48;35.90;;;9.45;;
22780;SDS011;11557;50.884;4.322;2023-01-31T13:21:17;33.20;;;9.50;;
22780;SDS011;11557;50.884;4.322;2023-01-31T13:24:48;31.75;;;8.95;;
22780;SDS011;11557;50.884;4.322;2023-01-31T13:29:28;32.15;;;9.82;;
22780;SDS011;11557;50.884;4.322;2023-01-31T13:32:05;39.05;;;9.85;;
22780;SDS011;11557;50.884;4.322;2023-01-31T13:34:43;31.95;;;9.90;;
22780;SDS011;11557;50.884;4.322;2023-01-31T13:37:21;31.52;;;11.13;;
22780;SDS011;11557;50.884;4.322;2023-01-31T13:39:56;32.00;;;9.95;;
22780;SDS011;11557;50.884;4.322;2023-01-31T13:42:29;28.88;;;11.80;;
22780;SDS011;11557;50.884;4.322;2023-01-31T13:44:58;29.08;;;10.15;;
22780;SDS011;11557;50.884;4.322;2023-01-31T13:47:29;32.40;;;11.77;;
22780;SDS011;11557;50.884;4.322;2023-01-31T13:50:06;29.37;;;11.03;;
22780;SDS011;11557;50.884;4.322;2023-01-31T13:52:55;29.25;;;11.73;;
22780;SDS011;11557;50.884;4.322;2023-01-31T13:55:36;29.15;;;11.38;;
22780;SDS011;11557;50.884;4.322;2023-01-31T13:58:05;29.63;;;11.43;;
22780;SDS011;11557;50.884;4.322;2023-01-31T14:00:56;32.70;;;11.68;;
22780;SDS011;11557;50.884;4.322;2023-01-31T14:03:24;25.42;;;10.05;;
22780;SDS011;11557;50.884;4.322;2023-01-31T14:05:51;30.38;;;10.93;;
22780;SDS011;11557;50.884;4.322;2023-01-31T14:10:50;25.15;;;9.63;;
22780;SDS011;11557;50.884;4.322;2023-01-31T14:15:59;24.88;;;9.27;;
22780;SDS011;11557;50.884;4.322;2023-01-31T14:18:46;27.42;;;9.88;;
22780;SDS011;11557;50.884;4.322;2023-01-31T14:24:00;29.05;;;8.55;;
22780;SDS011;11557;50.884;4.322;2023-01-31T14:29:42;24.08;;;7.45;;
22780;SDS011;11557;50.884;4.322;2023-01-31T14:32:11;15.35;;;6.15;;
22780;SDS011;11557;50.884;4.322;2023-01-31T14:34:46;19.58;;;6.30;;
22780;SDS011;11557;50.884;4.322;2023-01-31T14:39:46;17.17;;;6.80;;
22780;SDS011;11557;50.884;4.322;2023-01-31T14:42:57;18.95;;;6.30;;
22780;SDS011;11557;50.884;4.322;2023-01-31T14:45:47;16.60;;;4.88;;
22780;SDS011;11557;50.884;4.322;2023-01-31T14:59:27;13.40;;;4.78;;
22780;SDS011;11557;50.884;4.322;2023-01-31T15:02:25;11.90;;;4.13;;
22780;SDS011;11557;50.884;4.322;2023-01-31T15:05:16;12.18;;;3.92;;
22780;SDS011;11557;50.884;4.322;2023-01-31T15:07:57;16.48;;;4.00;;
22780;SDS011;11557;50.884;4.322;2023-01-31T15:16:21;6.85;;;3.47;;
22780;SDS011;11557;50.884;4.322;2023-01-31T15:26:51;11.80;;;3.75;;
22780;SDS011;11557;50.884;4.322;2023-01-31T15:29:23;13.73;;;3.95;;
22780;SDS011;11557;50.884;4.322;2023-01-31T15:31:57;12.27;;;3.95;;
22780;SDS011;11557;50.884;4.322;2023-01-31T15:34:33;11.57;;;3.58;;
22780;SDS011;11557;50.884;4.322;2023-01-31T15:37:07;10.02;;;3.38;;
22780;SDS011;11557;50.884;4.322;2023-01-31T15:39:53;11.50;;;3.33;;
22780;SDS011;11557;50.884;4.322;2023-01-31T15:42:25;11.50;;;4.10;;
22780;SDS011;11557;50.884;4.322;2023-01-31T15:45:18;12.18;;;3.45;;
22780;SDS011;11557;50.884;4.322;2023-01-31T15:48:02;11.45;;;3.70;;
22780;SDS011;11557;50.884;4.322;2023-01-31T15:50:35;14.68;;;5.10;;
22780;SDS011;11557;50.884;4.322;2023-01-31T15:53:02;12.85;;;3.67;;
22780;SDS011;11557;50.884;4.322;2023-01-31T15:55:30;10.93;;;4.22;;
22780;SDS011;11557;50.884;4.322;2023-01-31T15:57:57;15.18;;;4.70;;
22780;SDS011;11557;50.884;4.322;2023-01-31T16:02:56;12.38;;;4.53;;
22780;SDS011;11557;50.884;4.322;2023-01-31T16:05:30;12.45;;;3.88;;
22780;SDS011;11557;50.884;4.322;2023-01-31T16:07:58;14.15;;;4.78;;
22780;SDS011;11557;50.884;4.322;2023-01-31T16:10:26;13.48;;;4.22;;
22780;SDS011;11557;50.884;4.322;2023-01-31T16:12:53;16.05;;;4.60;;
22780;SDS011;11557;50.884;4.322;2023-01-31T16:15:25;14.73;;;6.13;;
22780;SDS011;11557;50.884;4.322;2023-01-31T16:17:54;11.35;;;4.07;;
22780;SDS011;11557;50.884;4.322;2023-01-31T16:23:19;12.73;;;4.80;;
22780;SDS011;11557;50.884;4.322;2023-01-31T16:25:54;15.73;;;5.50;;
22780;SDS011;11557;50.884;4.322;2023-01-31T16:31:01;13.32;;;4.72;;
22780;SDS011;11557;50.884;4.322;2023-01-31T16:33:32;16.80;;;6.07;;
22780;SDS011;11557;50.884;4.322;2023-01-31T16:36:03;15.80;;;6.13;;
22780;SDS011;11557;50.884;4.322;2023-01-31T16:38:35;19.17;;;8.52;;
22780;SDS011;11557;50.884;4.322;2023-01-31T16:41:04;14.27;;;5.72;;
22780;SDS011;11557;50.884;4.322;2023-01-31T16:43:36;17.20;;;5.78;;
22780;SDS011;11557;50.884;4.322;2023-01-31T16:46:05;14.40;;;5.43;;
22780;SDS011;11557;50.884;4.322;2023-01-31T16:49:03;15.00;;;6.22;;
22780;SDS011;11557;50.884;4.322;2023-01-31T17:04:42;14.27;;;6.38;;
22780;SDS011;11557;50.884;4.322;2023-01-31T17:07:14;15.75;;;5.57;;
22780;SDS011;11557;50.884;4.322;2023-01-31T17:09:42;18.45;;;6.55;;
22780;SDS011;11557;50.884;4.322;2023-01-31T17:12:13;10.48;;;5.50;;
22780;SDS011;11557;50.884;4.322;2023-01-31T17:14:42;16.00;;;6.90;;
22780;SDS011;11557;50.884;4.322;2023-01-31T17:17:09;23.60;;;12.13;;
22780;SDS011;11557;50.884;4.322;2023-01-31T17:19:36;44.92;;;21.00;;
22780;SDS011;11557;50.884;4.322;2023-01-31T17:22:01;20.00;;;9.88;;
22780;SDS011;11557;50.884;4.322;2023-01-31T17:24:27;17.52;;;12.50;;
22780;SDS011;11557;50.884;4.322;2023-01-31T17:26:53;14.93;;;7.50;;
22780;SDS011;11557;50.884;4.322;2023-01-31T17:29:19;16.15;;;6.38;;
22780;SDS011;11557;50.884;4.322;2023-01-31T17:31:46;15.88;;;5.47;;
22780;SDS011;11557;50.884;4.322;2023-01-31T17:34:12;13.30;;;5.47;;
22780;SDS011;11557;50.884;4.322;2023-01-31T17:36:39;13.75;;;5.68;;